Chapel Hill, NC (27514)

9:29 AM EDT on September 29, 2016 (GMT -0400)
Cosgrove Hill | | Change Station

Elev 325 ft 35.95 °N, 79.02 °W | Updated 8 seconds ago

Clear
Clear
66.0 °F
Feels Like 66.0 °F
N
0.0
Wind Variable Wind from NE
Gusts 0.0 mph

Today
High -- | Low -- °F
--% Chance of Precip.
Yesterday
High -- | Low -- °F
Precip. -- in
Pressure 30.01 in
Visibility 10.0 miles
Clouds Clear
Dew Point 65 °F
Humidity 96%
Rainfall 0.45 in
Snow Depth Not available.
7:09 AM 7:01 PM
Waning Crescent, 2% visible
METAR KIGX 291256Z AUTO 00000KT 10SM CLR 19/18 A3002 RMK AO2 SLP160 T01890183
Pressure 30.01 in
Visibility 10.0 miles
Clouds Clear
Dew Point 65 °F
Humidity 96%
Rainfall 0.45 in
Snow Depth Not available.
7:09 AM 7:01 PM
Waning Crescent, 2% visible
METAR KIGX 291256Z AUTO 00000KT 10SM CLR 19/18 A3002 RMK AO2 SLP160 T01890183

10-Day Weather Forecast

Almanac

Astronomy

Sep. 29, 2016 Rise Set
Actual Time
Civil Twilight
Nautical Twilight
Astronomical Twilight
Moon
Length of Visible Light
Length of Day
Tomorrow will be .
, % of the Moon is Illuminated

Today's Extremes

State Highs State Lows

Community

WunderPhotos

Upload Photos

1,942,470 photos uploaded!

WunderBlog® & News

Nearby

Air Quality

  Air Quality AQ Index Pollutant
Not available.

Snow Depth

Station Depth Elevation

Earthquake Activity

City Distance Mag. Time & Date
Minimum magnitude displayed is 2.5.

Coastal Water Temperatures

Place Temperature

Stations

Nearby Weather Stations

Station Location Temp. Windchill Dew Point Humidity Wind Precip. Elev Updated Type
                   

Watches & Warnings

There are currently no watches in effect.